createdAt,value
2022-09-01T00:01:04.838Z,15.20
2022-09-01T00:04:17.395Z,15.80
2022-09-01T00:07:26.466Z,15.80
2022-09-01T00:10:36.161Z,17.70
2022-09-01T00:13:45.066Z,16.77
2022-09-01T00:16:59.927Z,15.57
2022-09-01T00:20:10.729Z,16.07
2022-09-01T00:23:21.747Z,16.60
2022-09-01T00:26:32.110Z,17.97
2022-09-01T00:29:43.313Z,15.80
2022-09-01T00:32:52.205Z,16.73
2022-09-01T00:36:00.869Z,17.33
2022-09-01T00:39:09.945Z,17.10
2022-09-01T00:42:20.851Z,19.67
2022-09-01T00:45:30.886Z,16.93
2022-09-01T00:48:39.965Z,18.70
2022-09-01T00:51:56.968Z,19.90
2022-09-01T00:55:14.200Z,19.03
2022-09-01T00:58:24.179Z,22.13
2022-09-01T01:01:35.170Z,19.30
2022-09-01T01:04:44.769Z,19.07
2022-09-01T01:07:52.987Z,19.00
2022-09-01T01:11:02.981Z,21.77
2022-09-01T01:14:19.373Z,22.63
2022-09-01T01:17:27.569Z,23.10
2022-09-01T01:20:53.535Z,20.17
2022-09-01T01:24:14.603Z,22.87
2022-09-01T01:27:26.272Z,20.17
2022-09-01T01:30:36.985Z,23.53
2022-09-01T01:33:48.903Z,23.63
2022-09-01T01:36:59.851Z,22.80
2022-09-01T01:40:15.952Z,24.57
2022-09-01T01:43:27.588Z,22.43
2022-09-01T01:46:43.166Z,21.30
2022-09-01T01:49:54.153Z,20.60
2022-09-01T01:53:04.302Z,22.97
2022-09-01T01:56:20.432Z,21.57
2022-09-01T01:59:29.970Z,22.73
2022-09-01T02:02:40.044Z,22.87
2022-09-01T02:05:51.477Z,21.97
2022-09-01T02:09:03.378Z,21.37
2022-09-01T02:12:15.612Z,21.80
2022-09-01T02:15:25.766Z,22.00
2022-09-01T02:18:38.695Z,19.97
2022-09-01T02:23:16.129Z,20.37
2022-09-01T02:26:30.203Z,18.37
2022-09-01T02:29:43.565Z,21.10
2022-09-01T02:32:55.026Z,18.33
2022-09-01T02:36:08.797Z,21.30
2022-09-01T02:39:18.832Z,19.17
2022-09-01T02:42:29.605Z,18.53
2022-09-01T02:45:38.066Z,18.43
2022-09-01T02:48:51.438Z,18.70
2022-09-01T02:52:01.489Z,19.43
2022-09-01T02:55:12.076Z,20.33
2022-09-01T02:58:22.915Z,18.37
2022-09-01T03:01:36.111Z,19.50
2022-09-01T03:04:45.769Z,18.37
2022-09-01T03:07:57.871Z,18.63
2022-09-01T03:11:13.015Z,16.30
2022-09-01T03:14:24.326Z,16.90
2022-09-01T03:17:32.613Z,19.73
2022-09-01T03:20:46.412Z,16.83
2022-09-01T03:23:55.218Z,19.30
2022-09-01T03:27:03.845Z,15.40
2022-09-01T03:30:14.461Z,15.53
2022-09-01T03:33:26.067Z,15.93
2022-09-01T03:36:37.698Z,15.33
2022-09-01T03:39:48.253Z,15.20
2022-09-01T03:42:59.005Z,15.67
2022-09-01T03:46:09.811Z,15.43
2022-09-01T03:49:25.003Z,14.80
2022-09-01T03:52:35.023Z,17.63
2022-09-01T03:55:47.734Z,14.03
2022-09-01T03:58:59.514Z,14.80
2022-09-01T04:02:07.883Z,13.50
2022-09-01T04:05:17.334Z,14.53
2022-09-01T04:08:32.652Z,10.50
2022-09-01T04:11:45.754Z,10.37
2022-09-01T04:14:55.427Z,15.37
2022-09-01T04:18:09.985Z,13.40
2022-09-01T04:21:20.268Z,12.00
2022-09-01T04:24:33.025Z,12.17
2022-09-01T04:27:42.089Z,12.40
2022-09-01T04:30:56.869Z,11.70
2022-09-01T04:34:13.358Z,12.10
2022-09-01T04:37:24.091Z,10.80
2022-09-01T04:40:41.004Z,11.23
2022-09-01T04:43:52.799Z,9.83
2022-09-01T04:47:02.050Z,11.27
2022-09-01T04:50:17.330Z,11.83
2022-09-01T04:53:48.855Z,12.10
2022-09-01T04:57:00.885Z,10.83
2022-09-01T05:00:22.367Z,13.87
2022-09-01T05:03:32.121Z,12.77
2022-09-01T05:06:49.738Z,15.27
2022-09-01T05:10:01.374Z,16.33
2022-09-01T05:13:29.564Z,15.43
2022-09-01T05:16:41.112Z,19.10
2022-09-01T05:19:51.055Z,16.83
2022-09-01T05:23:00.609Z,17.17
2022-09-01T05:26:16.954Z,18.93
2022-09-01T05:29:28.882Z,19.37
2022-09-01T05:32:39.984Z,17.80
2022-09-01T05:35:56.585Z,20.13
2022-09-01T05:39:07.375Z,18.97
2022-09-01T05:42:16.607Z,17.17
2022-09-01T05:45:26.766Z,18.60
2022-09-01T05:48:39.859Z,20.17
2022-09-01T05:51:56.047Z,16.90
2022-09-01T05:55:09.025Z,18.73
2022-09-01T05:58:22.989Z,18.37
2022-09-01T06:01:34.510Z,16.77
2022-09-01T06:04:44.302Z,18.50
2022-09-01T06:07:57.912Z,20.40
2022-09-01T06:11:12.554Z,18.87
2022-09-01T06:14:20.841Z,17.60
2022-09-01T06:17:33.924Z,15.27
2022-09-01T06:20:49.437Z,18.33
2022-09-01T06:24:00.128Z,15.17
2022-09-01T06:27:09.932Z,15.40
2022-09-01T06:30:23.793Z,15.73
2022-09-01T06:33:53.420Z,14.80
2022-09-01T06:37:02.964Z,15.90
2022-09-01T06:40:17.881Z,15.53
2022-09-01T06:43:27.820Z,13.33
2022-09-01T06:46:36.066Z,14.20
2022-09-01T06:49:47.793Z,12.37
2022-09-01T06:56:44.934Z,11.47
2022-09-01T07:00:01.428Z,10.87
2022-09-01T07:03:11.599Z,10.77
2022-09-01T07:10:30.023Z,9.83
2022-09-01T07:17:23.624Z,10.23
2022-09-01T07:21:02.801Z,10.30
2022-09-01T07:35:01.480Z,8.40
2022-09-01T07:42:56.656Z,10.80
2022-09-01T07:42:59.167Z,8.83
2022-09-01T07:45:33.016Z,7.17
2022-09-01T07:52:12.373Z,8.00
2022-09-01T07:55:24.784Z,8.60
2022-09-01T07:58:35.131Z,9.00
2022-09-01T08:01:45.351Z,8.80
2022-09-01T08:04:54.644Z,7.47
2022-09-01T08:08:18.567Z,7.53
2022-09-01T08:18:48.078Z,7.73
2022-09-01T08:22:05.827Z,8.33
2022-09-01T08:25:31.057Z,8.60
2022-09-01T08:28:46.006Z,8.10
2022-09-01T08:31:59.206Z,6.73
2022-09-01T08:35:10.158Z,6.87
2022-09-01T08:38:18.917Z,8.60
2022-09-01T08:41:47.373Z,7.60
2022-09-01T08:45:05.000Z,8.20
2022-09-01T08:51:56.154Z,7.77
2022-09-01T08:55:15.306Z,6.60
2022-09-01T08:58:25.586Z,7.17
2022-09-01T09:02:07.023Z,8.40
2022-09-01T09:05:33.048Z,7.20
2022-09-01T09:08:57.982Z,7.70
2022-09-01T09:12:49.041Z,7.20
2022-09-01T09:16:10.356Z,7.33
2022-09-01T09:19:25.055Z,7.20
2022-09-01T09:22:35.041Z,6.83
2022-09-01T09:25:43.716Z,6.00
2022-09-01T09:28:52.237Z,5.77
2022-09-01T09:32:22.546Z,5.43
2022-09-01T09:35:36.384Z,6.10
2022-09-01T09:38:46.561Z,5.40
2022-09-01T09:42:09.774Z,5.63
2022-09-01T09:45:25.662Z,5.43
2022-09-01T09:48:35.224Z,5.43
2022-09-01T09:51:49.412Z,4.97
2022-09-01T09:55:06.648Z,5.27
2022-09-01T09:58:15.338Z,4.33
2022-09-01T10:01:32.596Z,5.23
2022-09-01T10:04:41.478Z,4.80
2022-09-01T10:07:50.663Z,4.37
2022-09-01T10:11:00.724Z,3.70
2022-09-01T10:14:47.689Z,3.33
2022-09-01T10:17:49.899Z,4.43
2022-09-01T10:21:02.797Z,4.70
2022-09-01T10:24:31.300Z,3.53
2022-09-01T10:27:47.124Z,3.77
2022-09-01T10:30:58.131Z,4.60
2022-09-01T10:34:13.552Z,4.10
2022-09-01T10:37:24.536Z,4.87
2022-09-01T10:40:49.278Z,4.20
2022-09-01T10:44:11.090Z,3.83
2022-09-01T10:47:30.123Z,4.33
2022-09-01T10:50:38.844Z,4.93
2022-09-01T10:53:49.016Z,4.23
2022-09-01T10:57:08.947Z,5.60
2022-09-01T11:05:01.460Z,2.97
2022-09-01T11:08:25.938Z,4.40
2022-09-01T11:11:46.951Z,3.60
2022-09-01T11:14:58.985Z,4.13
2022-09-01T11:18:20.618Z,3.93
2022-09-01T11:21:33.240Z,3.63
2022-09-01T11:24:58.051Z,2.70
2022-09-01T11:28:46.564Z,2.37
2022-09-01T11:31:55.026Z,2.20
2022-09-01T11:35:14.247Z,2.70
2022-09-01T11:38:23.953Z,2.40
2022-09-01T11:41:55.773Z,2.67
2022-09-01T11:45:20.743Z,2.40
2022-09-01T11:48:31.089Z,2.53
2022-09-01T11:51:49.304Z,1.50
2022-09-01T11:54:58.347Z,2.90
2022-09-01T11:58:17.161Z,2.83
2022-09-01T12:01:36.456Z,2.43
2022-09-01T12:04:44.758Z,2.23
2022-09-01T12:07:55.526Z,1.97
2022-09-01T12:11:10.396Z,3.13
2022-09-01T12:14:23.914Z,2.30
2022-09-01T12:17:32.134Z,3.50
2022-09-01T12:20:41.287Z,2.30
2022-09-01T12:24:10.602Z,1.77
2022-09-01T12:27:19.034Z,2.20
2022-09-01T12:30:28.376Z,2.13
2022-09-01T12:33:38.007Z,2.20
2022-09-01T12:37:07.358Z,2.43
2022-09-01T12:40:33.953Z,2.20
2022-09-01T12:43:42.535Z,4.10
2022-09-01T12:46:50.730Z,2.53
2022-09-01T12:49:58.977Z,1.70
2022-09-01T12:53:31.696Z,2.17
2022-09-01T12:56:41.947Z,1.87
2022-09-01T12:59:50.375Z,2.00
2022-09-01T13:03:14.476Z,2.83
2022-09-01T13:06:22.776Z,2.00
2022-09-01T13:09:31.481Z,2.97
2022-09-01T13:12:44.794Z,2.60
2022-09-01T13:15:56.244Z,1.80
2022-09-01T13:19:17.981Z,4.00
2022-09-01T13:22:30.164Z,2.00
2022-09-01T13:25:38.333Z,1.80
2022-09-01T13:28:47.886Z,2.27
2022-09-01T13:35:25.320Z,1.87
2022-09-01T13:38:33.574Z,1.90
2022-09-01T13:41:42.391Z,2.53
2022-09-01T13:44:55.365Z,2.27
2022-09-01T13:48:19.805Z,1.50
2022-09-01T13:51:29.509Z,2.23
2022-09-01T13:54:38.135Z,3.87
2022-09-01T13:57:46.571Z,1.70
2022-09-01T14:00:59.517Z,2.20
2022-09-01T14:04:08.537Z,1.90
2022-09-01T14:07:18.857Z,2.17
2022-09-01T14:10:31.809Z,1.77
2022-09-01T14:13:40.164Z,2.50
2022-09-01T14:16:50.507Z,2.17
2022-09-01T14:19:58.706Z,2.00
2022-09-01T14:23:10.445Z,1.33
2022-09-01T14:26:18.802Z,1.87
2022-09-01T14:29:27.622Z,1.90
2022-09-01T14:32:37.219Z,2.07
2022-09-01T14:35:48.962Z,2.30
2022-09-01T14:38:57.155Z,1.67
2022-09-01T14:42:07.854Z,1.50
2022-09-01T14:45:18.555Z,1.40
2022-09-01T14:48:28.170Z,2.43
2022-09-01T14:55:06.051Z,2.90
2022-09-01T14:58:14.685Z,1.60
2022-09-01T15:01:34.121Z,3.87
2022-09-01T15:04:44.399Z,2.17
2022-09-01T15:07:53.394Z,1.40
2022-09-01T15:11:02.502Z,1.37
2022-09-01T15:14:11.089Z,1.77
2022-09-01T15:17:19.338Z,1.87
2022-09-01T15:20:48.873Z,1.20
2022-09-01T15:23:57.749Z,1.60
2022-09-01T15:27:06.877Z,1.60
2022-09-01T15:30:16.904Z,2.50
2022-09-01T15:33:25.337Z,1.00
2022-09-01T15:36:42.264Z,1.07
2022-09-01T15:39:59.120Z,2.47
2022-09-01T15:43:07.749Z,1.10
2022-09-01T15:46:23.222Z,1.90
2022-09-01T15:49:34.433Z,1.33
2022-09-01T15:53:00.049Z,2.90
2022-09-01T15:56:21.175Z,1.23
2022-09-01T15:59:31.835Z,4.03
2022-09-01T16:02:44.513Z,1.27
2022-09-01T16:05:53.572Z,1.17
2022-09-01T16:09:03.630Z,1.17
2022-09-01T16:12:12.080Z,1.33
2022-09-01T16:15:25.153Z,5.50
2022-09-01T16:18:41.845Z,0.90
2022-09-01T16:22:05.927Z,1.53
2022-09-01T16:25:29.300Z,1.30
2022-09-01T16:28:43.045Z,0.70
2022-09-01T16:31:57.260Z,3.23
2022-09-01T16:35:07.039Z,1.13
2022-09-01T16:38:33.642Z,1.10
2022-09-01T16:42:01.231Z,0.77
2022-09-01T16:45:20.257Z,2.77
2022-09-01T16:48:41.761Z,1.63
2022-09-01T16:52:04.325Z,1.00
2022-09-01T16:55:28.211Z,1.50
2022-09-01T16:58:52.475Z,1.17
2022-09-01T17:02:24.532Z,1.90
2022-09-01T17:05:42.479Z,4.87
2022-09-01T17:08:56.660Z,2.20
2022-09-01T17:12:23.274Z,0.73
2022-09-01T17:15:41.232Z,0.83
2022-09-01T17:18:57.238Z,0.83
2022-09-01T17:22:10.281Z,1.00
2022-09-01T17:25:30.854Z,1.60
2022-09-01T17:28:46.463Z,0.70
2022-09-01T17:32:08.218Z,3.60
2022-09-01T17:35:26.035Z,0.70
2022-09-01T17:38:54.288Z,1.33
2022-09-01T17:42:12.033Z,3.53
2022-09-01T17:45:31.014Z,0.97
2022-09-01T17:48:50.839Z,1.10
2022-09-01T17:52:15.039Z,1.00
2022-09-01T17:55:52.333Z,1.30
2022-09-01T17:59:11.461Z,1.07
2022-09-01T18:02:47.346Z,1.87
2022-09-01T18:06:06.049Z,1.20
2022-09-01T18:09:21.828Z,1.10
2022-09-01T18:12:35.790Z,2.27
2022-09-01T18:15:54.419Z,1.30
2022-09-01T18:19:17.385Z,1.03
2022-09-01T18:22:33.129Z,2.00
2022-09-01T18:25:46.138Z,1.33
2022-09-01T18:28:55.753Z,3.50
2022-09-01T18:32:20.915Z,2.07
2022-09-01T18:35:51.548Z,2.03
2022-09-01T18:39:15.856Z,1.60
2022-09-01T18:42:33.437Z,2.23
2022-09-01T18:45:54.086Z,2.20
2022-09-01T18:49:20.848Z,1.20
2022-09-01T18:53:01.209Z,4.93
2022-09-01T18:56:28.248Z,1.27
2022-09-01T19:00:04.029Z,3.77
2022-09-01T19:03:24.077Z,1.73
2022-09-01T19:06:44.850Z,1.50
2022-09-01T19:10:03.211Z,3.93
2022-09-01T19:13:34.518Z,1.50
2022-09-01T19:17:03.537Z,1.30
2022-09-01T19:20:18.625Z,1.10
2022-09-01T19:23:41.616Z,1.10
2022-09-01T19:26:58.083Z,2.20
2022-09-01T19:30:09.906Z,1.43
2022-09-01T19:33:26.056Z,2.70
2022-09-01T19:36:43.450Z,1.27
2022-09-01T19:39:54.509Z,2.13
2022-09-01T19:43:13.669Z,3.67
2022-09-01T19:46:35.558Z,1.40
2022-09-01T19:49:53.666Z,2.57
2022-09-01T19:53:12.427Z,1.70
2022-09-01T19:56:28.422Z,2.57
2022-09-01T19:59:51.044Z,3.00
2022-09-01T20:03:09.590Z,1.93
2022-09-01T20:06:33.340Z,1.70
2022-09-01T20:09:52.079Z,1.40
2022-09-01T20:13:33.909Z,1.47
2022-09-01T20:16:45.768Z,1.43
2022-09-01T20:20:07.856Z,1.47
2022-09-01T20:23:28.641Z,3.70
2022-09-01T20:26:47.010Z,2.83
2022-09-01T20:30:04.896Z,1.70
2022-09-01T20:33:21.578Z,2.93
2022-09-01T20:36:38.082Z,1.40
2022-09-01T20:40:02.537Z,1.53
2022-09-01T20:43:22.526Z,5.17
2022-09-01T20:46:32.557Z,2.50
2022-09-01T20:49:42.056Z,2.10
2022-09-01T20:53:11.107Z,2.73
2022-09-01T20:56:29.435Z,2.03
2022-09-01T20:59:48.817Z,1.40
2022-09-01T21:03:07.984Z,1.30
2022-09-01T21:06:34.295Z,1.83
2022-09-01T21:10:01.821Z,1.77
2022-09-01T21:13:26.527Z,1.60
2022-09-01T21:16:50.608Z,3.30
2022-09-01T21:20:14.353Z,1.47
2022-09-01T21:23:23.941Z,1.13
2022-09-01T21:26:38.320Z,1.73
2022-09-01T21:29:58.562Z,2.47
2022-09-01T21:37:16.240Z,4.10
2022-09-01T21:40:28.948Z,1.97
2022-09-01T21:43:45.786Z,2.33
2022-09-01T21:46:53.936Z,2.00
2022-09-01T21:50:05.367Z,1.60
2022-09-01T21:53:16.892Z,1.27
2022-09-01T21:56:28.863Z,1.60
2022-09-01T21:59:38.645Z,2.50
2022-09-01T22:02:47.916Z,1.80
2022-09-01T22:20:20.516Z,3.70
2022-09-01T22:24:19.202Z,2.20
2022-09-01T22:27:28.537Z,2.37
2022-09-01T22:30:37.213Z,2.03
2022-09-01T22:33:47.564Z,2.40
2022-09-01T22:37:03.902Z,1.97
2022-09-01T22:40:15.579Z,2.50
2022-09-01T22:43:27.274Z,2.43
2022-09-01T22:46:37.763Z,2.53
2022-09-01T22:49:47.325Z,2.13
2022-09-01T22:52:55.807Z,5.03
2022-09-01T22:56:21.970Z,2.30
2022-09-01T22:59:30.287Z,2.37
2022-09-01T23:02:39.245Z,3.57
2022-09-01T23:05:50.786Z,2.87
2022-09-01T23:09:02.038Z,3.07
2022-09-01T23:12:10.311Z,2.37
2022-09-01T23:15:19.160Z,2.80
2022-09-01T23:18:32.746Z,2.97
2022-09-01T23:21:42.528Z,3.23
2022-09-01T23:24:50.713Z,2.23
2022-09-01T23:27:59.152Z,3.23
2022-09-01T23:31:09.103Z,2.67
2022-09-01T23:34:17.771Z,2.33
2022-09-01T23:37:27.999Z,2.40
2022-09-01T23:40:40.068Z,2.27
2022-09-01T23:43:48.299Z,2.90
2022-09-01T23:46:56.552Z,2.60
2022-09-01T23:50:06.647Z,2.90
2022-09-01T23:53:16.254Z,2.93
2022-09-01T23:56:27.878Z,3.27
2022-09-01T23:59:36.084Z,3.00
